sensor_id;sensor_type;location;lat;lon;timestamp;pressure;altitude;pressure_sealevel;temperature;humidity
63691;BME280;49837;57.280;27.070;2024-01-30T00:00:48;101467.94;;;-0.61;100.0
63691;BME280;49837;57.280;27.070;2024-01-30T00:01:48;101472.0;;;-0.6;100.0
63691;BME280;49837;57.280;27.070;2024-01-30T00:02:48;101471.38;;;-0.61;100.0
63691;BME280;49837;57.280;27.070;2024-01-30T00:03:49;101466.02;;;-0.62;100.0
63691;BME280;49837;57.280;27.070;2024-01-30T00:04:49;101466.23;;;-0.68;100.0
63691;BME280;49837;57.280;27.070;2024-01-30T00:05:49;101470.42;;;-0.76;100.0
63691;BME280;49837;57.280;27.070;2024-01-30T00:06:51;101471.97;;;-0.69;100.0
63691;BME280;49837;57.280;27.070;2024-01-30T00:07:50;101473.52;;;-0.65;100.0
63691;BME280;49837;57.280;27.070;2024-01-30T00:08:50;101468.4;;;-0.64;100.0
63691;BME280;49837;57.280;27.070;2024-01-30T00:09:51;101465.77;;;-0.62;100.0
63691;BME280;49837;57.280;27.070;2024-01-30T00:10:51;101466.8;;;-0.67;100.0
63691;BME280;49837;57.280;27.070;2024-01-30T00:11:52;101463.48;;;-0.68;100.0
63691;BME280;49837;57.280;27.070;2024-01-30T00:12:52;101473.48;;;-0.66;100.0
63691;BME280;49837;57.280;27.070;2024-01-30T00:13:52;101471.48;;;-0.68;100.0
63691;BME280;49837;57.280;27.070;2024-01-30T00:14:52;101472.09;;;-0.7;100.0
63691;BME280;49837;57.280;27.070;2024-01-30T00:15:53;101471.11;;;-0.71;100.0
63691;BME280;49837;57.280;27.070;2024-01-30T00:16:53;101470.09;;;-0.71;100.0
63691;BME280;49837;57.280;27.070;2024-01-30T00:17:53;101470.58;;;-0.72;100.0
63691;BME280;49837;57.280;27.070;2024-01-30T00:18:54;101464.47;;;-0.69;100.0
63691;BME280;49837;57.280;27.070;2024-01-30T00:19:54;101469.23;;;-0.73;100.0
63691;BME280;49837;57.280;27.070;2024-01-30T00:20:55;101474.77;;;-0.74;100.0
63691;BME280;49837;57.280;27.070;2024-01-30T00:21:55;101474.8;;;-0.72;100.0
63691;BME280;49837;57.280;27.070;2024-01-30T00:22:55;101479.52;;;-0.71;100.0
63691;BME280;49837;57.280;27.070;2024-01-30T00:23:56;101473.98;;;-0.71;100.0
63691;BME280;49837;57.280;27.070;2024-01-30T00:24:56;101473.19;;;-0.68;100.0
63691;BME280;49837;57.280;27.070;2024-01-30T00:25:56;101473.44;;;-0.68;100.0
63691;BME280;49837;57.280;27.070;2024-01-30T00:26:56;101475.04;;;-0.69;100.0
63691;BME280;49837;57.280;27.070;2024-01-30T00:27:57;101479.47;;;-0.73;100.0
63691;BME280;49837;57.280;27.070;2024-01-30T00:28:57;101484.1;;;-0.74;100.0
63691;BME280;49837;57.280;27.070;2024-01-30T00:29:58;101485.7;;;-0.73;100.0
63691;BME280;49837;57.280;27.070;2024-01-30T00:30:58;101478.33;;;-0.72;100.0
63691;BME280;49837;57.280;27.070;2024-01-30T00:31:58;101475.17;;;-0.71;100.0
63691;BME280;49837;57.280;27.070;2024-01-30T00:32:59;101474.44;;;-0.74;100.0
63691;BME280;49837;57.280;27.070;2024-01-30T00:33:59;101471.82;;;-0.78;100.0
63691;BME280;49837;57.280;27.070;2024-01-30T00:34:59;101480.51;;;-0.78;100.0
63691;BME280;49837;57.280;27.070;2024-01-30T00:36:00;101481.44;;;-0.71;100.0
63691;BME280;49837;57.280;27.070;2024-01-30T00:37:00;101479.23;;;-0.72;100.0
63691;BME280;49837;57.280;27.070;2024-01-30T00:38:00;101475.0;;;-0.7;100.0
63691;BME280;49837;57.280;27.070;2024-01-30T00:39:01;101472.22;;;-0.7;100.0
63691;BME280;49837;57.280;27.070;2024-01-30T00:40:01;101471.38;;;-0.74;100.0
63691;BME280;49837;57.280;27.070;2024-01-30T00:41:01;101477.19;;;-0.79;100.0
63691;BME280;49837;57.280;27.070;2024-01-30T00:42:02;101485.46;;;-0.77;100.0
63691;BME280;49837;57.280;27.070;2024-01-30T00:43:02;101488.09;;;-0.79;100.0
63691;BME280;49837;57.280;27.070;2024-01-30T00:44:03;101489.36;;;-0.78;100.0
63691;BME280;49837;57.280;27.070;2024-01-30T00:45:03;101483.33;;;-0.74;100.0
63691;BME280;49837;57.280;27.070;2024-01-30T00:46:03;101483.69;;;-0.71;100.0
63691;BME280;49837;57.280;27.070;2024-01-30T00:47:04;101479.72;;;-0.71;100.0
63691;BME280;49837;57.280;27.070;2024-01-30T00:48:04;101475.39;;;-0.81;100.0
63691;BME280;49837;57.280;27.070;2024-01-30T00:49:04;101472.9;;;-0.84;100.0
63691;BME280;49837;57.280;27.070;2024-01-30T00:50:05;101474.7;;;-0.84;100.0
63691;BME280;49837;57.280;27.070;2024-01-30T00:51:05;101469.9;;;-0.81;100.0
63691;BME280;49837;57.280;27.070;2024-01-30T00:52:05;101459.55;;;-0.84;100.0
63691;BME280;49837;57.280;27.070;2024-01-30T00:53:05;101455.0;;;-0.85;100.0
63691;BME280;49837;57.280;27.070;2024-01-30T00:54:06;101452.43;;;-0.9;100.0
63691;BME280;49837;57.280;27.070;2024-01-30T00:55:06;101452.18;;;-0.91;100.0
63691;BME280;49837;57.280;27.070;2024-01-30T00:56:07;101455.33;;;-0.87;100.0
63691;BME280;49837;57.280;27.070;2024-01-30T00:57:07;101460.08;;;-0.9;100.0
63691;BME280;49837;57.280;27.070;2024-01-30T00:58:07;101464.79;;;-0.91;100.0
63691;BME280;49837;57.280;27.070;2024-01-30T00:59:07;101464.97;;;-0.95;100.0
63691;BME280;49837;57.280;27.070;2024-01-30T01:00:08;101464.47;;;-0.95;100.0
63691;BME280;49837;57.280;27.070;2024-01-30T01:01:08;101466.84;;;-0.93;100.0
63691;BME280;49837;57.280;27.070;2024-01-30T01:02:08;101470.28;;;-0.89;100.0
63691;BME280;49837;57.280;27.070;2024-01-30T01:03:09;101474.99;;;-0.85;100.0
63691;BME280;49837;57.280;27.070;2024-01-30T01:04:09;101476.14;;;-0.9;100.0
63691;BME280;49837;57.280;27.070;2024-01-30T01:05:10;101478.89;;;-0.92;100.0
63691;BME280;49837;57.280;27.070;2024-01-30T01:06:10;101478.19;;;-0.94;100.0
63691;BME280;49837;57.280;27.070;2024-01-30T01:07:10;101468.97;;;-0.91;100.0
63691;BME280;49837;57.280;27.070;2024-01-30T01:08:11;101466.06;;;-0.94;100.0
63691;BME280;49837;57.280;27.070;2024-01-30T01:09:11;101464.88;;;-0.91;100.0
63691;BME280;49837;57.280;27.070;2024-01-30T01:10:11;101459.88;;;-0.91;100.0
63691;BME280;49837;57.280;27.070;2024-01-30T01:11:12;101472.12;;;-0.92;100.0
63691;BME280;49837;57.280;27.070;2024-01-30T01:12:12;101470.57;;;-0.94;100.0
63691;BME280;49837;57.280;27.070;2024-01-30T01:13:12;101465.78;;;-0.95;100.0
63691;BME280;49837;57.280;27.070;2024-01-30T01:14:13;101469.38;;;-0.95;100.0
63691;BME280;49837;57.280;27.070;2024-01-30T01:15:13;101474.27;;;-1.03;100.0
63691;BME280;49837;57.280;27.070;2024-01-30T01:16:13;101480.91;;;-1.02;100.0
63691;BME280;49837;57.280;27.070;2024-01-30T01:17:14;101480.41;;;-1.0;100.0
63691;BME280;49837;57.280;27.070;2024-01-30T01:18:14;101480.16;;;-0.98;100.0
63691;BME280;49837;57.280;27.070;2024-01-30T01:19:14;101479.75;;;-1.01;100.0
63691;BME280;49837;57.280;27.070;2024-01-30T01:20:15;101484.17;;;-1.02;100.0
63691;BME280;49837;57.280;27.070;2024-01-30T01:21:15;101489.13;;;-1.05;100.0
63691;BME280;49837;57.280;27.070;2024-01-30T01:22:16;101487.58;;;-1.16;100.0
63691;BME280;49837;57.280;27.070;2024-01-30T01:23:16;101485.31;;;-1.26;100.0
63691;BME280;49837;57.280;27.070;2024-01-30T01:24:16;101482.73;;;-1.24;100.0
63691;BME280;49837;57.280;27.070;2024-01-30T01:25:17;101483.77;;;-1.28;100.0
63691;BME280;49837;57.280;27.070;2024-01-30T01:26:17;101476.11;;;-1.28;100.0
63691;BME280;49837;57.280;27.070;2024-01-30T01:27:17;101474.02;;;-1.28;100.0
63691;BME280;49837;57.280;27.070;2024-01-30T01:28:17;101479.3;;;-1.29;100.0
63691;BME280;49837;57.280;27.070;2024-01-30T01:29:18;101478.85;;;-1.28;100.0
63691;BME280;49837;57.280;27.070;2024-01-30T01:30:18;101475.66;;;-1.3;100.0
63691;BME280;49837;57.280;27.070;2024-01-30T01:31:18;101472.55;;;-1.31;100.0
63691;BME280;49837;57.280;27.070;2024-01-30T01:32:19;101470.91;;;-1.32;100.0
63691;BME280;49837;57.280;27.070;2024-01-30T01:33:19;101472.22;;;-1.32;100.0
63691;BME280;49837;57.280;27.070;2024-01-30T01:34:19;101467.8;;;-1.24;100.0
63691;BME280;49837;57.280;27.070;2024-01-30T01:35:23;101468.33;;;-1.2;100.0
63691;BME280;49837;57.280;27.070;2024-01-30T01:36:20;101471.69;;;-1.23;100.0
63691;BME280;49837;57.280;27.070;2024-01-30T01:37:20;101473.53;;;-1.27;100.0
63691;BME280;49837;57.280;27.070;2024-01-30T01:38:21;101484.7;;;-1.3;100.0
63691;BME280;49837;57.280;27.070;2024-01-30T01:39:22;101481.34;;;-1.38;100.0
63691;BME280;49837;57.280;27.070;2024-01-30T01:40:26;101482.85;;;-1.42;100.0
63691;BME280;49837;57.280;27.070;2024-01-30T01:41:23;101484.53;;;-1.37;100.0
63691;BME280;49837;57.280;27.070;2024-01-30T01:42:24;101483.5;;;-1.37;100.0
63691;BME280;49837;57.280;27.070;2024-01-30T01:43:24;101479.59;;;-1.28;100.0
63691;BME280;49837;57.280;27.070;2024-01-30T01:44:24;101476.23;;;-1.25;100.0
63691;BME280;49837;57.280;27.070;2024-01-30T01:45:25;101477.38;;;-1.23;100.0
63691;BME280;49837;57.280;27.070;2024-01-30T01:46:30;101471.12;;;-1.18;100.0
63691;BME280;49837;57.280;27.070;2024-01-30T01:47:29;101468.25;;;-1.25;100.0
63691;BME280;49837;57.280;27.070;2024-01-30T01:48:30;101462.72;;;-1.3;100.0
63691;BME280;49837;57.280;27.070;2024-01-30T01:49:30;101464.65;;;-1.31;100.0
63691;BME280;49837;57.280;27.070;2024-01-30T01:50:30;101467.67;;;-1.31;100.0
63691;BME280;49837;57.280;27.070;2024-01-30T01:51:33;101469.02;;;-1.32;100.0
63691;BME280;49837;57.280;27.070;2024-01-30T01:52:31;101466.36;;;-1.31;100.0
63691;BME280;49837;57.280;27.070;2024-01-30T01:53:31;101462.19;;;-1.31;100.0
63691;BME280;49837;57.280;27.070;2024-01-30T01:54:32;101467.52;;;-1.31;100.0
63691;BME280;49837;57.280;27.070;2024-01-30T01:55:32;101473.86;;;-1.34;100.0
63691;BME280;49837;57.280;27.070;2024-01-30T01:56:33;101476.72;;;-1.32;100.0
63691;BME280;49837;57.280;27.070;2024-01-30T01:57:33;101482.7;;;-1.27;100.0
63691;BME280;49837;57.280;27.070;2024-01-30T01:58:33;101484.55;;;-1.2;100.0
63691;BME280;49837;57.280;27.070;2024-01-30T01:59:34;101487.66;;;-1.18;100.0
63691;BME280;49837;57.280;27.070;2024-01-30T02:00:34;101488.19;;;-1.19;100.0
63691;BME280;49837;57.280;27.070;2024-01-30T02:01:36;101487.53;;;-1.17;100.0
63691;BME280;49837;57.280;27.070;2024-01-30T02:02:35;101490.56;;;-1.21;100.0
63691;BME280;49837;57.280;27.070;2024-01-30T02:03:35;101493.22;;;-1.18;100.0
63691;BME280;49837;57.280;27.070;2024-01-30T02:04:35;101487.16;;;-1.16;100.0
63691;BME280;49837;57.280;27.070;2024-01-30T02:05:36;101487.78;;;-1.17;100.0
63691;BME280;49837;57.280;27.070;2024-01-30T02:06:36;101484.17;;;-1.21;100.0
63691;BME280;49837;57.280;27.070;2024-01-30T02:07:36;101484.3;;;-1.25;100.0
63691;BME280;49837;57.280;27.070;2024-01-30T02:08:37;101480.77;;;-1.23;100.0
63691;BME280;49837;57.280;27.070;2024-01-30T02:09:37;101484.8;;;-1.16;100.0
63691;BME280;49837;57.280;27.070;2024-01-30T02:10:37;101483.93;;;-1.15;100.0
63691;BME280;49837;57.280;27.070;2024-01-30T02:11:38;101483.2;;;-1.15;100.0
63691;BME280;49837;57.280;27.070;2024-01-30T02:12:38;101486.06;;;-1.15;100.0
63691;BME280;49837;57.280;27.070;2024-01-30T02:13:38;101490.72;;;-1.17;100.0
63691;BME280;49837;57.280;27.070;2024-01-30T02:14:47;101494.53;;;-1.18;100.0
63691;BME280;49837;57.280;27.070;2024-01-30T02:15:40;101496.49;;;-1.18;100.0
63691;BME280;49837;57.280;27.070;2024-01-30T02:16:40;101493.62;;;-1.21;100.0
63691;BME280;49837;57.280;27.070;2024-01-30T02:17:41;101491.42;;;-1.2;100.0
63691;BME280;49837;57.280;27.070;2024-01-30T02:18:41;101487.33;;;-1.23;100.0
63691;BME280;49837;57.280;27.070;2024-01-30T02:19:41;101491.01;;;-1.28;100.0
63691;BME280;49837;57.280;27.070;2024-01-30T02:20:43;101488.42;;;-1.28;100.0
63691;BME280;49837;57.280;27.070;2024-01-30T02:21:42;101489.41;;;-1.3;100.0
63691;BME280;49837;57.280;27.070;2024-01-30T02:22:43;101491.94;;;-1.32;100.0
63691;BME280;49837;57.280;27.070;2024-01-30T02:23:47;101483.84;;;-1.32;100.0
63691;BME280;49837;57.280;27.070;2024-01-30T02:24:45;101490.97;;;-1.32;100.0
63691;BME280;49837;57.280;27.070;2024-01-30T02:25:46;101492.06;;;-1.31;100.0
63691;BME280;49837;57.280;27.070;2024-01-30T02:26:46;101493.12;;;-1.31;100.0
63691;BME280;49837;57.280;27.070;2024-01-30T02:27:46;101494.98;;;-1.31;100.0
63691;BME280;49837;57.280;27.070;2024-01-30T02:28:47;101491.0;;;-1.31;100.0
63691;BME280;49837;57.280;27.070;2024-01-30T02:29:47;101490.05;;;-1.32;100.0
63691;BME280;49837;57.280;27.070;2024-01-30T02:30:47;101488.38;;;-1.38;100.0
63691;BME280;49837;57.280;27.070;2024-01-30T02:31:48;101492.02;;;-1.41;100.0
63691;BME280;49837;57.280;27.070;2024-01-30T02:32:48;101492.17;;;-1.43;100.0
63691;BME280;49837;57.280;27.070;2024-01-30T02:33:48;101494.34;;;-1.43;100.0
63691;BME280;49837;57.280;27.070;2024-01-30T02:34:49;101493.98;;;-1.42;100.0
63691;BME280;49837;57.280;27.070;2024-01-30T02:35:49;101499.13;;;-1.45;100.0
63691;BME280;49837;57.280;27.070;2024-01-30T02:36:49;101499.02;;;-1.44;100.0
63691;BME280;49837;57.280;27.070;2024-01-30T02:37:50;101498.64;;;-1.43;100.0
63691;BME280;49837;57.280;27.070;2024-01-30T02:38:50;101503.11;;;-1.41;100.0
63691;BME280;49837;57.280;27.070;2024-01-30T02:39:50;101503.42;;;-1.46;100.0
63691;BME280;49837;57.280;27.070;2024-01-30T02:40:51;101502.89;;;-1.47;100.0
63691;BME280;49837;57.280;27.070;2024-01-30T02:41:51;101506.12;;;-1.46;100.0
63691;BME280;49837;57.280;27.070;2024-01-30T02:42:51;101509.11;;;-1.46;100.0
63691;BME280;49837;57.280;27.070;2024-01-30T02:43:52;101512.48;;;-1.56;100.0
63691;BME280;49837;57.280;27.070;2024-01-30T02:44:52;101511.0;;;-1.61;100.0
63691;BME280;49837;57.280;27.070;2024-01-30T02:45:52;101510.31;;;-1.61;100.0
63691;BME280;49837;57.280;27.070;2024-01-30T02:46:53;101512.4;;;-1.6;100.0
63691;BME280;49837;57.280;27.070;2024-01-30T02:47:53;101513.7;;;-1.61;100.0
63691;BME280;49837;57.280;27.070;2024-01-30T02:48:53;101515.83;;;-1.62;100.0
63691;BME280;49837;57.280;27.070;2024-01-30T02:49:54;101509.94;;;-1.63;100.0
63691;BME280;49837;57.280;27.070;2024-01-30T02:50:54;101507.89;;;-1.63;100.0
63691;BME280;49837;57.280;27.070;2024-01-30T02:51:54;101506.79;;;-1.6;100.0
63691;BME280;49837;57.280;27.070;2024-01-30T02:52:55;101505.89;;;-1.59;100.0
63691;BME280;49837;57.280;27.070;2024-01-30T02:53:55;101506.05;;;-1.6;100.0
63691;BME280;49837;57.280;27.070;2024-01-30T02:54:55;101509.91;;;-1.61;100.0
63691;BME280;49837;57.280;27.070;2024-01-30T02:55:56;101506.55;;;-1.61;100.0
63691;BME280;49837;57.280;27.070;2024-01-30T02:56:56;101505.88;;;-1.64;100.0
63691;BME280;49837;57.280;27.070;2024-01-30T02:57:56;101506.38;;;-1.63;100.0
63691;BME280;49837;57.280;27.070;2024-01-30T02:58:57;101509.16;;;-1.62;100.0
63691;BME280;49837;57.280;27.070;2024-01-30T02:59:57;101507.65;;;-1.61;100.0
63691;BME280;49837;57.280;27.070;2024-01-30T03:00:57;101507.28;;;-1.59;100.0
63691;BME280;49837;57.280;27.070;2024-01-30T03:01:58;101509.17;;;-1.59;100.0
63691;BME280;49837;57.280;27.070;2024-01-30T03:02:58;101503.69;;;-1.59;100.0
63691;BME280;49837;57.280;27.070;2024-01-30T03:03:58;101500.78;;;-1.62;100.0
63691;BME280;49837;57.280;27.070;2024-01-30T03:04:59;101499.99;;;-1.62;100.0
63691;BME280;49837;57.280;27.070;2024-01-30T03:05:59;101500.37;;;-1.62;100.0
63691;BME280;49837;57.280;27.070;2024-01-30T03:06:59;101498.56;;;-1.63;100.0
63691;BME280;49837;57.280;27.070;2024-01-30T03:08:00;101500.58;;;-1.59;100.0
63691;BME280;49837;57.280;27.070;2024-01-30T03:09:00;101507.23;;;-1.61;100.0
63691;BME280;49837;57.280;27.070;2024-01-30T03:10:00;101515.45;;;-1.62;100.0
63691;BME280;49837;57.280;27.070;2024-01-30T03:11:01;101515.18;;;-1.6;100.0
63691;BME280;49837;57.280;27.070;2024-01-30T03:12:01;101509.44;;;-1.63;100.0
63691;BME280;49837;57.280;27.070;2024-01-30T03:13:02;101504.87;;;-1.61;100.0
63691;BME280;49837;57.280;27.070;2024-01-30T03:14:02;101499.55;;;-1.63;100.0
63691;BME280;49837;57.280;27.070;2024-01-30T03:15:03;101494.0;;;-1.7;100.0
63691;BME280;49837;57.280;27.070;2024-01-30T03:16:03;101492.25;;;-1.67;100.0
63691;BME280;49837;57.280;27.070;2024-01-30T03:17:03;101500.93;;;-1.65;100.0
63691;BME280;49837;57.280;27.070;2024-01-30T03:18:04;101507.19;;;-1.64;100.0
63691;BME280;49837;57.280;27.070;2024-01-30T03:19:05;101502.54;;;-1.61;100.0
63691;BME280;49837;57.280;27.070;2024-01-30T03:20:05;101498.45;;;-1.6;100.0
63691;BME280;49837;57.280;27.070;2024-01-30T03:21:04;101503.11;;;-1.59;100.0
63691;BME280;49837;57.280;27.070;2024-01-30T03:22:05;101506.83;;;-1.61;100.0
63691;BME280;49837;57.280;27.070;2024-01-30T03:23:05;101510.64;;;-1.61;100.0
63691;BME280;49837;57.280;27.070;2024-01-30T03:24:05;101503.6;;;-1.58;100.0
63691;BME280;49837;57.280;27.070;2024-01-30T03:25:06;101502.55;;;-1.51;100.0
63691;BME280;49837;57.280;27.070;2024-01-30T03:26:06;101503.38;;;-1.51;100.0
63691;BME280;49837;57.280;27.070;2024-01-30T03:27:06;101505.88;;;-1.5;100.0
63691;BME280;49837;57.280;27.070;2024-01-30T03:28:06;101505.01;;;-1.53;100.0
63691;BME280;49837;57.280;27.070;2024-01-30T03:29:07;101509.22;;;-1.54;100.0
63691;BME280;49837;57.280;27.070;2024-01-30T03:30:08;101509.72;;;-1.5;100.0
63691;BME280;49837;57.280;27.070;2024-01-30T03:31:07;101504.11;;;-1.51;100.0
63691;BME280;49837;57.280;27.070;2024-01-30T03:32:08;101505.45;;;-1.52;100.0
63691;BME280;49837;57.280;27.070;2024-01-30T03:33:08;101505.53;;;-1.56;100.0
63691;BME280;49837;57.280;27.070;2024-01-30T03:34:08;101502.3;;;-1.55;100.0
63691;BME280;49837;57.280;27.070;2024-01-30T03:35:09;101505.0;;;-1.56;100.0
63691;BME280;49837;57.280;27.070;2024-01-30T03:36:10;101507.86;;;-1.58;100.0
63691;BME280;49837;57.280;27.070;2024-01-30T03:37:10;101508.72;;;-1.6;100.0
63691;BME280;49837;57.280;27.070;2024-01-30T03:38:10;101509.04;;;-1.62;100.0
63691;BME280;49837;57.280;27.070;2024-01-30T03:39:10;101507.38;;;-1.59;100.0
63691;BME280;49837;57.280;27.070;2024-01-30T03:40:11;101506.93;;;-1.54;100.0
63691;BME280;49837;57.280;27.070;2024-01-30T03:41:11;101508.77;;;-1.51;100.0
63691;BME280;49837;57.280;27.070;2024-01-30T03:42:11;101504.72;;;-1.52;100.0
63691;BME280;49837;57.280;27.070;2024-01-30T03:43:12;101500.09;;;-1.53;100.0
63691;BME280;49837;57.280;27.070;2024-01-30T03:44:12;101498.3;;;-1.51;100.0
63691;BME280;49837;57.280;27.070;2024-01-30T03:45:12;101493.79;;;-1.54;100.0
63691;BME280;49837;57.280;27.070;2024-01-30T03:46:13;101498.14;;;-1.53;100.0
63691;BME280;49837;57.280;27.070;2024-01-30T03:47:13;101500.72;;;-1.52;100.0
63691;BME280;49837;57.280;27.070;2024-01-30T03:48:13;101501.41;;;-1.51;100.0
63691;BME280;49837;57.280;27.070;2024-01-30T03:49:13;101506.85;;;-1.5;100.0
63691;BME280;49837;57.280;27.070;2024-01-30T03:50:14;101506.94;;;-1.5;100.0
63691;BME280;49837;57.280;27.070;2024-01-30T03:51:14;101503.79;;;-1.47;100.0
63691;BME280;49837;57.280;27.070;2024-01-30T03:52:15;101502.4;;;-1.47;100.0
63691;BME280;49837;57.280;27.070;2024-01-30T03:53:15;101504.11;;;-1.49;100.0
63691;BME280;49837;57.280;27.070;2024-01-30T03:54:15;101506.27;;;-1.52;100.0
63691;BME280;49837;57.280;27.070;2024-01-30T03:55:16;101506.27;;;-1.56;100.0
63691;BME280;49837;57.280;27.070;2024-01-30T03:56:16;101509.26;;;-1.55;100.0
63691;BME280;49837;57.280;27.070;2024-01-30T03:57:16;101504.16;;;-1.52;100.0
63691;BME280;49837;57.280;27.070;2024-01-30T03:58:17;101503.66;;;-1.52;100.0
63691;BME280;49837;57.280;27.070;2024-01-30T03:59:17;101506.19;;;-1.55;100.0
63691;BME280;49837;57.280;27.070;2024-01-30T04:00:17;101509.0;;;-1.58;100.0
63691;BME280;49837;57.280;27.070;2024-01-30T04:01:18;101516.28;;;-1.61;100.0
63691;BME280;49837;57.280;27.070;2024-01-30T04:02:18;101516.61;;;-1.62;100.0
63691;BME280;49837;57.280;27.070;2024-01-30T04:03:18;101512.52;;;-1.64;100.0
63691;BME280;49837;57.280;27.070;2024-01-30T04:04:19;101515.59;;;-1.59;100.0
63691;BME280;49837;57.280;27.070;2024-01-30T04:05:19;101512.85;;;-1.58;100.0
63691;BME280;49837;57.280;27.070;2024-01-30T04:06:19;101517.39;;;-1.58;100.0
63691;BME280;49837;57.280;27.070;2024-01-30T04:07:20;101516.78;;;-1.59;100.0
63691;BME280;49837;57.280;27.070;2024-01-30T04:08:20;101518.83;;;-1.59;100.0
63691;BME280;49837;57.280;27.070;2024-01-30T04:09:21;101523.16;;;-1.6;100.0
63691;BME280;49837;57.280;27.070;2024-01-30T04:10:21;101524.17;;;-1.62;100.0
63691;BME280;49837;57.280;27.070;2024-01-30T04:11:21;101529.28;;;-1.64;100.0
63691;BME280;49837;57.280;27.070;2024-01-30T04:12:22;101535.89;;;-1.7;100.0
63691;BME280;49837;57.280;27.070;2024-01-30T04:13:22;101536.54;;;-1.7;100.0
63691;BME280;49837;57.280;27.070;2024-01-30T04:14:22;101536.67;;;-1.69;100.0
63691;BME280;49837;57.280;27.070;2024-01-30T04:15:23;101536.58;;;-1.69;100.0
63691;BME280;49837;57.280;27.070;2024-01-30T04:16:23;101537.31;;;-1.72;100.0
63691;BME280;49837;57.280;27.070;2024-01-30T04:17:23;101532.53;;;-1.72;100.0
63691;BME280;49837;57.280;27.070;2024-01-30T04:18:24;101529.09;;;-1.74;100.0
63691;BME280;49837;57.280;27.070;2024-01-30T04:19:24;101530.69;;;-1.71;100.0
63691;BME280;49837;57.280;27.070;2024-01-30T04:20:25;101531.11;;;-1.69;100.0
63691;BME280;49837;57.280;27.070;2024-01-30T04:21:25;101524.4;;;-1.67;100.0
63691;BME280;49837;57.280;27.070;2024-01-30T04:22:25;101532.02;;;-1.67;100.0
63691;BME280;49837;57.280;27.070;2024-01-30T04:23:25;101531.72;;;-1.7;100.0
63691;BME280;49837;57.280;27.070;2024-01-30T04:24:26;101530.25;;;-1.68;100.0
63691;BME280;49837;57.280;27.070;2024-01-30T04:25:26;101528.16;;;-1.69;100.0
63691;BME280;49837;57.280;27.070;2024-01-30T04:26:26;101530.41;;;-1.68;100.0
63691;BME280;49837;57.280;27.070;2024-01-30T04:27:27;101527.72;;;-1.68;100.0
63691;BME280;49837;57.280;27.070;2024-01-30T04:28:27;101528.38;;;-1.64;100.0
63691;BME280;49837;57.280;27.070;2024-01-30T04:29:28;101521.06;;;-1.63;100.0
63691;BME280;49837;57.280;27.070;2024-01-30T04:30:28;101519.92;;;-1.64;100.0
63691;BME280;49837;57.280;27.070;2024-01-30T04:31:28;101520.19;;;-1.68;100.0
63691;BME280;49837;57.280;27.070;2024-01-30T04:32:28;101519.45;;;-1.7;100.0
63691;BME280;49837;57.280;27.070;2024-01-30T04:33:29;101515.92;;;-1.72;100.0
63691;BME280;49837;57.280;27.070;2024-01-30T04:34:29;101516.58;;;-1.72;100.0
63691;BME280;49837;57.280;27.070;2024-01-30T04:35:29;101520.67;;;-1.72;100.0
63691;BME280;49837;57.280;27.070;2024-01-30T04:36:30;101526.77;;;-1.69;100.0
63691;BME280;49837;57.280;27.070;2024-01-30T04:37:30;101532.38;;;-1.68;100.0
63691;BME280;49837;57.280;27.070;2024-01-30T04:38:31;101530.36;;;-1.69;100.0
63691;BME280;49837;57.280;27.070;2024-01-30T04:39:33;101518.09;;;-1.71;100.0
63691;BME280;49837;57.280;27.070;2024-01-30T04:40:31;101510.36;;;-1.7;100.0
63691;BME280;49837;57.280;27.070;2024-01-30T04:41:32;101508.69;;;-1.72;100.0
63691;BME280;49837;57.280;27.070;2024-01-30T04:42:32;101511.26;;;-1.74;100.0
63691;BME280;49837;57.280;27.070;2024-01-30T04:43:32;101516.61;;;-1.75;100.0
63691;BME280;49837;57.280;27.070;2024-01-30T04:44:32;101521.69;;;-1.75;100.0
63691;BME280;49837;57.280;27.070;2024-01-30T04:45:33;101523.41;;;-1.73;100.0
63691;BME280;49837;57.280;27.070;2024-01-30T04:46:33;101519.77;;;-1.68;100.0
63691;BME280;49837;57.280;27.070;2024-01-30T04:47:34;101516.14;;;-1.65;100.0
63691;BME280;49837;57.280;27.070;2024-01-30T04:48:34;101513.45;;;-1.65;100.0
63691;BME280;49837;57.280;27.070;2024-01-30T04:49:35;101509.23;;;-1.68;100.0
63691;BME280;49837;57.280;27.070;2024-01-30T04:50:34;101503.87;;;-1.69;100.0
63691;BME280;49837;57.280;27.070;2024-01-30T04:51:35;101503.17;;;-1.7;100.0
63691;BME280;49837;57.280;27.070;2024-01-30T04:52:35;101502.43;;;-1.72;100.0
63691;BME280;49837;57.280;27.070;2024-01-30T04:53:35;101498.98;;;-1.73;100.0
63691;BME280;49837;57.280;27.070;2024-01-30T04:54:36;101498.55;;;-1.73;100.0
63691;BME280;49837;57.280;27.070;2024-01-30T04:55:36;101498.95;;;-1.73;100.0
63691;BME280;49837;57.280;27.070;2024-01-30T04:56:36;101497.31;;;-1.75;100.0
63691;BME280;49837;57.280;27.070;2024-01-30T04:57:37;101494.61;;;-1.75;100.0
63691;BME280;49837;57.280;27.070;2024-01-30T04:58:37;101491.09;;;-1.75;100.0
63691;BME280;49837;57.280;27.070;2024-01-30T04:59:38;101487.25;;;-1.75;100.0
63691;BME280;49837;57.280;27.070;2024-01-30T05:00:38;101487.27;;;-1.85;100.0
63691;BME280;49837;57.280;27.070;2024-01-30T05:01:38;101495.51;;;-1.89;100.0
63691;BME280;49837;57.280;27.070;2024-01-30T05:02:39;101493.31;;;-1.87;100.0
63691;BME280;49837;57.280;27.070;2024-01-30T05:03:39;101497.28;;;-1.84;100.0
63691;BME280;49837;57.280;27.070;2024-01-30T05:04:40;101493.77;;;-1.8;100.0
63691;BME280;49837;57.280;27.070;2024-01-30T05:05:40;101491.41;;;-1.78;100.0
63691;BME280;49837;57.280;27.070;2024-01-30T05:06:40;101490.77;;;-1.75;100.0
63691;BME280;49837;57.280;27.070;2024-01-30T05:07:41;101485.36;;;-1.77;100.0
63691;BME280;49837;57.280;27.070;2024-01-30T05:08:41;101486.56;;;-1.74;100.0
63691;BME280;49837;57.280;27.070;2024-01-30T05:09:41;101490.61;;;-1.73;100.0
63691;BME280;49837;57.280;27.070;2024-01-30T05:10:41;101496.05;;;-1.7;100.0
63691;BME280;49837;57.280;27.070;2024-01-30T05:11:41;101499.03;;;-1.71;100.0
63691;BME280;49837;57.280;27.070;2024-01-30T05:12:42;101497.73;;;-1.71;100.0